PWSweather.com
Personal Weather Stations
Station Observations
SOUTHSHROPSHIRE
Wheathill, BridgnorthGB Wv16 6QT

WheathillBridgnorthGB Wv16 6QT

Lat: 52.436666, Lon: -2.58768

Elevation: 1056

Station Type: Davis Vantage Vue

Latest ConditionsUpdated 7:50:00 AM GMT Thursday, Dec 12, 2019
Currently Today's Max Today's Min Today's Average
Temperature 33.9°F1.1°C 35.2°F1.8°C 31.4°F-0.3°C 33.0°F0.6°C
Dew Point 33.4°F0.8°C 34.7°F1.5°C 30.9°F-0.6°C 32.5°F0.3°C
Winds 0.9 mph SE1.4 kmh SE 1.9 mph -3.1 kmh - - 0.9 mph 1.4 kmh
Wind Gusts 5.0 mph8.0 kmh 8.0 mph12.9 kmh - -
Humidity 98% 98% 98% 98%
Pressure 29.25 in990.5 mb 29.57 in1001.4 mb 29.25 in990.5 mb -
Precipitation - 0.04 in1.0 mm - -
Hour Temp Dew Point Humidity Winds Wind Gusts Pressure Precip Precip Rate Daily Precip Total
07:50 AM 33.9°F1.1°C 33.4°F0.8°C 98% 0.9 mph SE1.4 kmh SE 5.0 mph8.0 kmh 29.25 in990.5 mb 0.03 in0.8 mm 0.06 in1.5 mm 0.04 in1.0 mm
07:40 AM 34.0°F1.1°C 33.5°F0.8°C 98% 0.8 mph ESE1.3 kmh ESE 4.0 mph6.4 kmh 29.26 in990.9 mb 0.02 in0.5 mm 0.00 in0.0 mm 0.03 in0.8 mm
07:30 AM 34.4°F1.3°C 33.9°F1.1°C 98% 0.8 mph SE1.3 kmh SE 4.0 mph6.4 kmh 29.27 in991.2 mb 0.02 in0.5 mm 0.06 in1.5 mm 0.02 in0.5 mm
07:20 AM 34.8°F1.6°C 34.3°F1.3°C 98% 1.1 mph SE1.8 kmh SE 6.0 mph9.7 kmh 29.28 in991.5 mb 0.01 in0.3 mm 0.00 in0.0 mm 0.02 in0.5 mm
07:10 AM 35.0°F1.7°C 34.5°F1.4°C 98% 1.2 mph SE1.9 kmh SE 5.0 mph8.0 kmh 29.29 in991.9 mb 0.01 in0.3 mm 0.06 in1.5 mm 0.02 in0.5 mm
07:00 AM 35.2°F1.8°C 34.7°F1.5°C 98% 1.6 mph SE2.6 kmh SE 6.0 mph9.7 kmh 29.30 in992.2 mb 0.00 in0.0 mm 0.00 in0.0 mm 0.01 in0.3 mm
06:50 AM 34.8°F1.6°C 34.3°F1.3°C 98% 1.1 mph SE1.8 kmh SE 5.0 mph8.0 kmh 29.31 in992.6 mb 0.00 in0.0 mm 0.00 in0.0 mm 0.01 in0.3 mm
06:40 AM 34.7°F1.5°C 34.2°F1.2°C 98% 0.9 mph SE1.4 kmh SE 6.0 mph9.7 kmh 29.32 in992.9 mb 0.01 in0.3 mm 0.00 in0.0 mm 0.01 in0.3 mm
06:30 AM 34.8°F1.6°C 34.3°F1.3°C 98% 1.6 mph SE2.6 kmh SE 7.0 mph11.3 kmh 29.33 in993.2 mb 0.01 in0.3 mm 0.00 in0.0 mm 0.01 in0.3 mm
06:20 AM 34.8°F1.6°C 34.3°F1.3°C 98% 1.2 mph SE1.9 kmh SE 6.0 mph9.7 kmh 29.34 in993.6 mb 0.01 in0.3 mm 0.00 in0.0 mm 0.01 in0.3 mm
06:10 AM 34.8°F1.6°C 34.3°F1.3°C 98% 1.1 mph SE1.8 kmh SE 5.0 mph8.0 kmh 29.35 in993.9 mb 0.01 in0.3 mm 0.00 in0.0 mm 0.01 in0.3 mm
06:00 AM 34.6°F1.4°C 34.1°F1.2°C 98% 1.4 mph SE2.3 kmh SE 5.0 mph8.0 kmh 29.36 in994.2 mb 0.01 in0.3 mm 0.01 in0.3 mm 0.01 in0.3 mm
05:50 AM 34.3°F1.3°C 33.8°F1.0°C 98% 1.3 mph SE2.1 kmh SE 6.0 mph9.7 kmh 29.36 in994.2 mb 0.00 in0.0 mm 0.00 in0.0 mm 0.00 in0.0 mm
05:40 AM 33.9°F1.1°C 33.4°F0.8°C 98% 1.3 mph SE2.1 kmh SE 8.0 mph12.9 kmh 29.37 in994.6 mb 0.00 in0.0 mm 0.00 in0.0 mm 0.00 in0.0 mm
05:30 AM 33.8°F1.0°C 33.3°F0.7°C 98% 1.4 mph SE2.3 kmh SE 6.0 mph9.7 kmh 29.38 in994.9 mb 0.00 in0.0 mm 0.00 in0.0 mm 0.00 in0.0 mm
05:20 AM 33.7°F0.9°C 33.2°F0.7°C 98% 0.6 mph SE1.0 kmh SE 4.0 mph6.4 kmh 29.39 in995.3 mb 0.00 in0.0 mm 0.00 in0.0 mm 0.00 in0.0 mm
05:10 AM 33.6°F0.9°C 33.1°F0.6°C 98% 0.3 mph ESE0.5 kmh ESE 3.0 mph4.8 kmh 29.40 in995.6 mb 0.00 in0.0 mm 0.00 in0.0 mm 0.00 in0.0 mm
05:00 AM 33.4°F0.8°C 32.9°F0.5°C 98% 0.7 mph SE1.1 kmh SE 5.0 mph8.0 kmh 29.40 in995.6 mb 0.00 in0.0 mm 0.00 in0.0 mm 0.00 in0.0 mm
04:50 AM 33.1°F0.6°C 32.6°F0.3°C 98% 0.4 mph N0.6 kmh N 5.0 mph8.0 kmh 29.41 in995.9 mb 0.00 in0.0 mm 0.00 in0.0 mm 0.00 in0.0 mm
04:40 AM 33.0°F0.6°C 32.5°F0.3°C 98% 0.4 mph SW0.6 kmh SW 3.0 mph4.8 kmh 29.41 in995.9 mb 0.00 in0.0 mm 0.00 in0.0 mm 0.00 in0.0 mm
04:30 AM 32.7°F0.4°C 32.2°F0.1°C 98% 0.4 mph W0.6 kmh W 4.0 mph6.4 kmh 29.42 in996.3 mb 0.00 in0.0 mm 0.00 in0.0 mm 0.00 in0.0 mm
04:20 AM 32.3°F0.2°C 31.8°F-0.1°C 98% 0.6 mph W1.0 kmh W 5.0 mph8.0 kmh 29.43 in996.6 mb 0.00 in0.0 mm 0.00 in0.0 mm 0.00 in0.0 mm
04:10 AM 32.2°F0.1°C 31.7°F-0.2°C 98% 0.5 mph W0.8 kmh W 4.0 mph6.4 kmh 29.43 in996.6 mb 0.00 in0.0 mm 0.00 in0.0 mm 0.00 in0.0 mm
04:00 AM 31.9°F-0.1°C 31.4°F-0.3°C 98% 0.5 mph W0.8 kmh W 3.0 mph4.8 kmh 29.44 in997.0 mb 0.00 in0.0 mm 0.00 in0.0 mm 0.00 in0.0 mm
03:50 AM 32.1°F0.1°C 31.6°F-0.2°C 98% 0.3 mph W0.5 kmh W 2.0 mph3.2 kmh 29.45 in997.3 mb 0.00 in0.0 mm 0.00 in0.0 mm 0.00 in0.0 mm
03:40 AM 32.5°F0.3°C 32.0°F0.0°C 98% 0.2 mph W0.3 kmh W 2.0 mph3.2 kmh 29.45 in997.3 mb 0.00 in0.0 mm 0.00 in0.0 mm 0.00 in0.0 mm
03:30 AM 32.6°F0.3°C 32.1°F0.1°C 98% 0.2 mph WSW0.3 kmh WSW 4.0 mph6.4 kmh 29.46 in997.6 mb 0.00 in0.0 mm 0.00 in0.0 mm 0.00 in0.0 mm
03:20 AM 32.6°F0.3°C 32.1°F0.1°C 98% 0.5 mph NW0.8 kmh NW 5.0 mph8.0 kmh 29.47 in998.0 mb 0.00 in0.0 mm 0.00 in0.0 mm 0.00 in0.0 mm
03:10 AM 32.5°F0.3°C 32.0°F0.0°C 98% 0.6 mph SW1.0 kmh SW 4.0 mph6.4 kmh 29.48 in998.3 mb 0.00 in0.0 mm 0.00 in0.0 mm 0.00 in0.0 mm
03:00 AM 32.4°F0.2°C 31.9°F-0.1°C 98% 0.5 mph WSW0.8 kmh WSW 6.0 mph9.7 kmh 29.48 in998.3 mb 0.00 in0.0 mm 0.00 in0.0 mm 0.00 in0.0 mm
02:50 AM 32.3°F0.2°C 31.8°F-0.1°C 98% 0.3 mph WSW0.5 kmh WSW 3.0 mph4.8 kmh 29.49 in998.6 mb 0.00 in0.0 mm 0.00 in0.0 mm 0.00 in0.0 mm
02:40 AM 32.3°F0.2°C 31.8°F-0.1°C 98% 0.3 mph W0.5 kmh W 4.0 mph6.4 kmh 29.50 in999.0 mb 0.00 in0.0 mm 0.00 in0.0 mm 0.00 in0.0 mm
02:30 AM 32.4°F0.2°C 31.9°F-0.1°C 98% 0.6 mph W1.0 kmh W 4.0 mph6.4 kmh 29.50 in999.0 mb 0.00 in0.0 mm 0.00 in0.0 mm 0.00 in0.0 mm
02:20 AM 32.4°F0.2°C 31.9°F-0.1°C 98% 0.6 mph W1.0 kmh W 4.0 mph6.4 kmh 29.51 in999.3 mb 0.00 in0.0 mm 0.00 in0.0 mm 0.00 in0.0 mm
02:10 AM 32.4°F0.2°C 31.9°F-0.1°C 98% 0.4 mph W0.6 kmh W 3.0 mph4.8 kmh 29.51 in999.3 mb 0.00 in0.0 mm 0.00 in0.0 mm 0.00 in0.0 mm
02:00 AM 32.5°F0.3°C 32.0°F0.0°C 98% 1.1 mph W1.8 kmh W 5.0 mph8.0 kmh 29.52 in999.7 mb 0.00 in0.0 mm 0.00 in0.0 mm 0.00 in0.0 mm
01:50 AM 32.2°F0.1°C 31.7°F-0.2°C 98% 1.7 mph W2.7 kmh W 6.0 mph9.7 kmh 29.52 in999.7 mb 0.00 in0.0 mm 0.00 in0.0 mm 0.00 in0.0 mm
01:40 AM 32.1°F0.1°C 31.6°F-0.2°C 98% 0.7 mph W1.1 kmh W 3.0 mph4.8 kmh 29.52 in999.7 mb 0.00 in0.0 mm 0.00 in0.0 mm 0.00 in0.0 mm
01:30 AM 32.2°F0.1°C 31.7°F-0.2°C 98% 1.0 mph W1.6 kmh W 5.0 mph8.0 kmh 29.53 in1000.0 mb 0.00 in0.0 mm 0.00 in0.0 mm 0.00 in0.0 mm
01:20 AM 31.9°F-0.1°C 31.4°F-0.3°C 98% 1.2 mph W1.9 kmh W 5.0 mph8.0 kmh 29.53 in1000.0 mb 0.00 in0.0 mm 0.00 in0.0 mm 0.00 in0.0 mm
01:10 AM 31.7°F-0.2°C 31.2°F-0.4°C 98% 1.9 mph W3.1 kmh W 5.0 mph8.0 kmh 29.54 in1000.3 mb 0.00 in0.0 mm 0.00 in0.0 mm 0.00 in0.0 mm
01:00 AM 31.5°F-0.3°C 31.0°F-0.6°C 98% 1.2 mph W1.9 kmh W 5.0 mph8.0 kmh 29.54 in1000.3 mb 0.00 in0.0 mm 0.00 in0.0 mm 0.00 in0.0 mm
12:50 AM 31.5°F-0.3°C 31.0°F-0.6°C 98% 1.5 mph W2.4 kmh W 5.0 mph8.0 kmh 29.55 in1000.7 mb 0.00 in0.0 mm 0.00 in0.0 mm 0.00 in0.0 mm
12:40 AM 31.5°F-0.3°C 31.0°F-0.6°C 98% 1.0 mph W1.6 kmh W 3.0 mph4.8 kmh 29.55 in1000.7 mb 0.00 in0.0 mm 0.00 in0.0 mm 0.00 in0.0 mm
12:30 AM 31.5°F-0.3°C 31.0°F-0.6°C 98% 1.3 mph W2.1 kmh W 4.0 mph6.4 kmh 29.56 in1001.0 mb 0.00 in0.0 mm 0.00 in0.0 mm 0.00 in0.0 mm
12:20 AM 31.5°F-0.3°C 31.0°F-0.6°C 98% 1.0 mph W1.6 kmh W 4.0 mph6.4 kmh 29.56 in1001.0 mb 0.00 in0.0 mm 0.00 in0.0 mm 0.00 in0.0 mm
12:10 AM 31.4°F-0.3°C 30.9°F-0.6°C 98% 1.5 mph W2.4 kmh W 5.0 mph8.0 kmh 29.57 in1001.4 mb 0.00 in0.0 mm 0.00 in0.0 mm 0.00 in0.0 mm
12:00 AM 31.4°F-0.3°C 30.9°F-0.6°C 98% 1.2 mph W1.9 kmh W 5.0 mph8.0 kmh 29.57 in1001.4 mb 0.00 in0.0 mm 0.00 in0.0 mm 0.00 in0.0 mm